Home > Products > Valid Products > TAF

000
FTUS42 KILM 012100 AAA
TAFILM
TAF AMD
KILM 012108Z 0121/0218 19011KT P6SM FEW030
      TEMPO 0121/0123 VRB15KT 4SM -TSRA SCT030CB
     FM020000 21006KT P6SM FEW015 SCT050 SCT120
     FM020900 23004KT P6SM VCSH SCT040 BKN080
     FM021300 27008KT P6SM SCT015 SCT050 SCT140=



000
FTUS42 KILM 011700
TAFCRE
TAF
KCRE 011722Z 0118/0218 19012KT P6SM FEW030
     FM020500 24005KT P6SM FEW015 SCT050
     FM021600 20009KT P6SM SCT020 SCT080 SCT140=



000
FTUS42 KILM 011700
TAFLBT
TAF
KLBT 011722Z 0118/0218 19005KT P6SM SCT025 SCT050
      TEMPO 0208/0212 3SM BR SCT009
     FM021400 25005KT P6SM SCT025=



000
FTUS42 KILM 011700
TAFFLO
TAF
KFLO 011722Z 0118/0218 19005KT P6SM SCT025 SCT050
      TEMPO 0208/0212 4SM BR SCT010
     FM021400 25005KT P6SM SCT025=



000
FTUS42 KILM 011700
TAFILM
TAF
KILM 011722Z 0118/0218 19009KT P6SM SCT030
     FM020000 21006KT P6SM FEW015 SCT050 SCT120
     FM020900 23004KT P6SM VCSH SCT040 BKN080
     FM021300 27008KT P6SM SCT015 SCT050 SCT140=



000
FTUS42 KILM 011700
TAFMYR
TAF
KMYR 011722Z 0118/0218 18013KT P6SM SCT025
     FM020500 23006KT P6SM FEW015 SCT050
     FM021600 18009KT P6SM SCT020 SCT080 SCT140=



000
FTUS42 KILM 011200 CCB
TAFLBT
TAF COR
KLBT 011201Z 0112/0212 VRB02KT P6SM SCT002 SCT120
      TEMPO 0112/0113 3/4SM BR BKN002
     FM011400 26004KT P6SM SCT020
     FM012000 20008KT P6SM VCSH BKN035
     FM020200 19005KT P6SM FEW050
      TEMPO 0208/0212 3SM BR SCT009=



000
FTUS42 KILM 011100 CCA
TAFLBT
TAF COR
KLBT 011136Z 0112/0212 VRB02KT P6SM SCT002 SCT120
      TEMPO 0112/0113 2SM BR BKN002
     FM011400 26004KT P6SM SCT020
     FM012000 20008KT P6SM VCSH BKN035
     FM020200 19005KT P6SM FEW050
      TEMPO 0208/0212 3SM BR SCT009=



000
FTUS42 KILM 011100
TAFLBT
TAF
KLBT 011135Z 0112/0212 VRB02KT P6SM SCT005 SCT120
     FM011400 26004KT P6SM SCT020
     FM012000 20008KT P6SM VCSH BKN035
     FM020200 19005KT P6SM FEW050
      TEMPO 0208/0212 3SM BR SCT009=



000
FTUS42 KILM 011100
TAFMYR
TAF
KMYR 011135Z 0112/0212 25005KT P6SM SCT015 SCT080
     FM011700 17009KT P6SM VCSH SCT020 SCT080
     FM011900 18013KT P6SM FEW030 SCT120 SCT250
     FM020500 24006KT P6SM FEW015 SCT050=



000
FTUS42 KILM 011100
TAFILM
TAF
KILM 011135Z 0112/0212 23005KT P6SM SCT020 SCT080
     FM011600 VRB05KT P6SM VCTS SCT025CB BKN080 BKN250
      TEMPO 0117/0119 3SM TSRA SCT015 BKN025CB
     FM011900 19010KT P6SM FEW030 SCT120 SCT250
     FM020000 22006KT P6SM FEW015 SCT050=



000
FTUS42 KILM 011100
TAFFLO
TAF
KFLO 011135Z 0112/0212 VRB02KT P6SM SCT005 SCT120
     FM011400 26004KT P6SM SCT020
     FM012000 19008KT P6SM VCSH BKN035
     FM020000 20005KT P6SM FEW050
      TEMPO 0208/0212 4SM BR SCT010=



000
FTUS42 KILM 011100
TAFCRE
TAF
KCRE 011135Z 0112/0212 25005KT P6SM SCT015 SCT080
     FM011600 19009KT P6SM VCSH SCT020 SCT080
      TEMPO 0117/0119 5SM -SHRA BKN020
     FM011900 19013KT P6SM FEW030 SCT120 SCT250
     FM020500 24006KT P6SM FEW015 SCT050=



000
FTUS42 KILM 011000 AAA
TAFFLO
TAF AMD
KFLO 011043Z 0111/0206 VRB02KT P6SM SCT015
     FM011300 22006KT P6SM FEW020 SCT050=



000
FTUS42 KILM 011000 CCA
TAFFLO
TAF COR
KFLO 011042Z 0106/0206 20006KT P6SM SCT150
     FM011300 22006KT P6SM FEW020 SCT050=



000
FTUS42 KILM 010900 AAA
TAFLBT
TAF AMD
KLBT 010903Z 0109/0206 VRB02KT 4SM BR SCT005
      TEMPO 0109/0112 BKN005
     FM011300 23006KT P6SM FEW020 SCT050=



000
FTUS42 KILM 010900 CCA
TAFLBT
TAF COR
KLBT 010902Z 0106/0206 19004KT P6SM SCT150
     FM010800 VRB02KT 4SM BR SCT004
      TEMPO 0109/0112 BKN004
     FM011300 23006KT P6SM FEW020 SCT050=



000
FTUS42 KILM 010500
TAFFLO
TAF
KFLO 010522Z 0106/0206 20006KT P6SM SCT150
     FM010900 VRB02KT 4SM BR SCT004
      TEMPO 0110/0112 BKN004
     FM011300 22006KT P6SM FEW020 SCT050=



000
FTUS42 KILM 010500
TAFMYR
TAF
KMYR 010522Z 0106/0206 21005KT P6SM SCT015 SCT025
      TEMPO 0108/0112 BKN015
     FM011500 18010KT P6SM SCT040 SCT150
      AMD LTD TO CLD VIS AND WIND TIL 011100=



000
FTUS42 KILM 010500
TAFCRE
TAF
KCRE 010522Z 0106/0206 21009KT P6SM SCT015 SCT025
      TEMPO 0108/0112 BKN015
     FM011500 19009KT P6SM SCT040 SCT150=



000
FTUS42 KILM 010500
TAFLBT
TAF
KLBT 010522Z 0106/0206 19004KT P6SM SCT150
     FM010800 VRB02KT 4SM BR SCT004
      TEMPO 0110/0112 BKN004
     FM011300 23006KT P6SM FEW020 SCT050=



000
FTUS42 KILM 010500
TAFILM
TAF
KILM 010522Z 0106/0206 22004KT P6SM SCT015 SCT025
      TEMPO 0108/0112 BKN015
     FM011700 18008KT P6SM SCT040 SCT150=



000
FTUS42 KILM 312300
TAFMYR
TAF
KMYR 312320Z 0100/0124 17005KT P6SM FEW020
     FM010600 21004KT P6SM SCT015 SCT025
     FM011500 18010KT P6SM FEW040 SCT150
      AMD LTD TO CLD VIS AND WIND 0104/0111=



000
FTUS42 KILM 312300
TAFLBT
TAF
KLBT 312320Z 0100/0124 17003KT P6SM SCT120
     FM010800 VRB02KT 4SM BR SCT004
      TEMPO 0110/0112 2SM BR BKN004
     FM011300 23006KT P6SM FEW020 SCT050=



000
FTUS42 KILM 312300
TAFCRE
TAF
KCRE 312320Z 0100/0124 18006KT P6SM FEW020
     FM010600 22004KT P6SM SCT015 SCT025
     FM011500 18009KT P6SM FEW040 SCT150=



000
FTUS42 KILM 312300
TAFFLO
TAF
KFLO 312320Z 0100/0124 18004KT P6SM SCT120
     FM010800 VRB02KT 4SM BR SCT004
      TEMPO 0110/0112 2SM BR BKN004
     FM011300 22006KT P6SM FEW020 SCT050=



000
FTUS42 KILM 312300
TAFILM
TAF
KILM 312320Z 0100/0124 18005KT P6SM FEW020
     FM010600 22004KT P6SM SCT015 SCT025
     FM011600 19008KT P6SM FEW040 SCT150=



000
FTUS42 KILM 311900 AAA
TAFMYR
TAF AMD
KMYR 311918Z 3119/0118 17010KT P6SM SCT025
     FM010500 23006KT P6SM SCT015
     FM011500 18010KT P6SM SCT020=



000
FTUS42 KILM 311700
TAFILM
TAF
KILM 311727Z 3118/0118 16008KT P6SM VCSH SCT025 SCT040
     FM010200 21004KT P6SM SCT015
     FM011600 19008KT P6SM SCT020=



000
FTUS42 KILM 311700
TAFMYR
TAF
KMYR 311727Z 3118/0118 16012KT P6SM SCT025 SCT100
     FM010500 23006KT P6SM SCT015
     FM011500 18010KT P6SM SCT020=



000
FTUS42 KILM 311700
TAFLBT
TAF
KLBT 311727Z 3118/0118 17006KT P6SM SCT035
     FM010800 21003KT 2SM BR BKN003
     FM011300 26006KT P6SM SCT015=



000
FTUS42 KILM 311700
TAFCRE
TAF
KCRE 311727Z 3118/0118 18010KT P6SM SCT025 SCT100
     FM010600 22006KT P6SM SCT015
     FM011500 17010KT P6SM SCT020=



000
FTUS42 KILM 311700
TAFFLO
TAF
KFLO 311727Z 3118/0118 16006KT P6SM SCT040
     FM010800 21003KT 2SM BR BKN003
     FM011300 25006KT P6SM SCT015=



000
FTUS42 KILM 311200 CCA
TAFCRE
TAF COR
KCRE 311204Z 3112/0112 19005KT P6SM VCSH SCT015 BKN080
      TEMPO 3113/3116 BKN020
     FM311600 18010KT P6SM SCT030
     FM010600 22005KT P6SM SCT015=



000
FTUS42 KILM 311200 CCA
TAFMYR
TAF COR
KMYR 311204Z 3112/0112 18005KT P6SM VCSH SCT015 BKN080
      TEMPO 3113/3116 BKN020
     FM311600 17012KT P6SM SCT030
     FM010500 21005KT P6SM SCT015=



000
FTUS42 KILM 311200 CCA
TAFFLO
TAF COR
KFLO 311203Z 3112/0112 17007KT P6SM SCT030
     FM010800 21003KT 2SM BR BKN003=



000
FTUS42 KILM 311100
TAFLBT
TAF
KLBT 311121Z 3112/0112 17007KT P6SM SCT030
     FM010800 21003KT 2SM BR BKN003=



000
FTUS42 KILM 311100
TAFMYR
TAF
KMYR 311121Z 3112/0112 16005KT P6SM VCSH SCT015 SCT080
      TEMPO 3113/3116 BKN020
     FM311600 17012KT P6SM SCT030
     FM010500 21005KT P6SM SCT015=



000
FTUS42 KILM 311100
TAFFLO
TAF
KFLO 311121Z 3112/0112 00000KT 3SM BR BKN003
      TEMPO 3112/3113 1/2SM FG
     FM311400 VRB04KT P6SM SCT010
     FM311700 17007KT P6SM SCT030
     FM010800 21003KT 2SM BR BKN003=



000
FTUS42 KILM 311100
TAFILM
TAF
KILM 311121Z 3112/0112 VRB05KT P6SM VCSH SCT015 SCT080
      TEMPO 3113/3116 -SHRA BKN020
     FM311600 16008KT P6SM SCT030
     FM010200 20004KT P6SM SCT015=



000
FTUS42 KILM 311100
TAFCRE
TAF
KCRE 311121Z 3112/0112 16005KT P6SM VCSH SCT015 SCT080
      TEMPO 3113/3116 BKN020
     FM311600 18010KT P6SM SCT030
     FM010600 22005KT P6SM SCT015=



000
FTUS42 KILM 310900 AAB
TAFFLO
TAF AMD
KFLO 310902Z 3109/0106 00000KT 1SM BR SCT003 SCT200
      TEMPO 3109/3111 1/2SM FG VV002
     FM311100 00000KT 1SM BR BKN003
     FM311300 19007KT P6SM FEW020 SCT050=



000
FTUS42 KILM 310800 AAA
TAFFLO
TAF AMD
KFLO 310822Z 3108/0106 00000KT 4SM BR FEW003 SCT200
      TEMPO 3109/3111 1SM BR BKN003
     FM311100 00000KT 1SM BR BKN003
     FM311300 19007KT P6SM FEW020 SCT050=



000
FTUS42 KILM 310500
TAFMYR
TAF
KMYR 310525Z 3106/0106 15005KT P6SM FEW020
     FM310800 VRB03KT P6SM VCSH SCT010 SCT020 SCT200
      TEMPO 3109/3113 BKN020
     FM311500 17010KT P6SM FEW020 SCT035
      AMD LTD TO CLD VIS AND WIND TIL 311100=



000
FTUS42 KILM 310500
TAFLBT
TAF
KLBT 310525Z 3106/0106 00000KT P6SM SCT200
     FM311000 00000KT 4SM BR FEW006 SCT200
      TEMPO 3111/3113 BKN006
     FM311500 18006KT P6SM FEW020 SCT050=



000
FTUS42 KILM 310500
TAFCRE
TAF
KCRE 310525Z 3106/0106 17005KT P6SM FEW020
     FM310900 VRB03KT P6SM VCSH FEW010 SCT020 SCT200
      TEMPO 3110/3114 BKN020
     FM311500 18010KT P6SM FEW020 SCT035=



000
FTUS42 KILM 310500
TAFILM
TAF
KILM 310525Z 3106/0106 00000KT P6SM FEW020
     FM310900 VRB03KT P6SM VCSH FEW010 SCT020 SCT200
      TEMPO 3111/3115 BKN020
     FM311500 18008KT P6SM FEW020 SCT040=



000
FTUS42 KILM 310500
TAFFLO
TAF
KFLO 310525Z 3106/0106 00000KT P6SM SCT200
     FM310930 00000KT 4SM BR FEW003 SCT200
      TEMPO 3110/3113 1SM BR BKN003
     FM311500 19007KT P6SM FEW020 SCT050=



000
FTUS42 KILM 310200 AAA
TAFMYR
TAF AMD
KMYR 310259Z 3103/3124 16005KT P6SM BKN020
     FM310900 VRB03KT P6SM VCSH SCT010 BKN020
     FM311500 17010KT P6SM FEW020 SCT035
      AMD LTD TO CLD VIS AND WIND 3104/3111=



000
FTUS42 KILM 302300
TAFILM
TAF
KILM 302321Z 3100/3124 16004KT P6SM FEW020
     FM310900 VRB02KT P6SM VCSH SCT010 BKN020
     FM311500 17008KT P6SM FEW020 SCT040=



000
FTUS42 KILM 302300
TAFFLO
TAF
KFLO 302321Z 3100/3124 17004KT P6SM FEW100
     FM310800 00000KT 4SM BR FEW006 BKN015
      TEMPO 3110/3113 2SM BR BKN006
     FM311500 19006KT P6SM FEW020 SCT050=



000
FTUS42 KILM 302300
TAFLBT
TAF
KLBT 302321Z 3100/3124 16004KT P6SM SCT100
     FM310600 00000KT 4SM BR FEW006 BKN015
      TEMPO 3109/3113 2SM BR BKN006
     FM311500 19005KT P6SM FEW020 SCT050=



000
FTUS42 KILM 302300
TAFMYR
TAF
KMYR 302321Z 3100/3124 16005KT P6SM FEW020
     FM310900 VRB03KT P6SM VCSH SCT010 BKN020
     FM311500 17010KT P6SM FEW020 SCT035
      AMD LTD TO CLD VIS AND WIND 3104/3111=



000
FTUS42 KILM 302300
TAFCRE
TAF
KCRE 302321Z 3100/3124 17005KT P6SM FEW020
     FM310900 VRB03KT P6SM VCSH SCT010 BKN020
     FM311500 18009KT P6SM FEW020 SCT035=



000
FTUS42 KILM 302000 AAA
TAFMYR
TAF AMD
KMYR 302000Z 3020/3118 12010KT P6SM FEW020 SCT035
     FM310200 VRB03KT P6SM SCT012
     FM310800 VRB03KT P6SM BKN010
     FM311100 18005KT 5SM -SHRA SCT008 BKN015 BKN030
     FM311400 17010KT P6SM FEW030 BKN100=



000
FTUS42 KILM 301700
TAFFLO
TAF
KFLO 301730Z 3018/3118 15008KT P6SM SCT025 BKN040
     FM310700 VRB03KT 3SM BR SCT012
     FM310900 VRB03KT 1SM BR SCT004 BKN012
      TEMPO 3110/3113 BKN004
     FM311300 VRB03KT 4SM BR OVC006
     FM311500 20005KT P6SM SCT015=



000
FTUS42 KILM 301700
TAFMYR
TAF
KMYR 301730Z 3018/3118 14012KT P6SM VCSH SCT020 SCT035 SCT090
     FM310200 VRB03KT P6SM SCT012
     FM310800 VRB03KT P6SM BKN010
     FM311100 18005KT 5SM -SHRA SCT008 BKN015 BKN030
     FM311400 17010KT P6SM FEW030 BKN100=



000
FTUS42 KILM 301700
TAFILM
TAF
KILM 301730Z 3018/3118 14008KT P6SM SCT020 SCT040
     FM310200 VRB03KT P6SM SCT010
      TEMPO 3103/3107 BKN010
     FM311200 17004KT P6SM BKN018
     FM311600 17007KT P6SM BKN030=



000
FTUS42 KILM 301700
TAFCRE
TAF
KCRE 301730Z 3018/3118 14009KT P6SM SCT020 SCT035 SCT100
     FM310200 VRB03KT P6SM SCT012
     FM310800 VRB03KT P6SM BKN010
     FM311100 18005KT 5SM -SHRA SCT008 BKN015 BKN030
     FM311400 18008KT P6SM FEW030 BKN100=



000
FTUS42 KILM 301700
TAFLBT
TAF
KLBT 301730Z 3018/3118 15006KT P6SM VCSH SCT025 SCT050 BKN090
      TEMPO 3018/3021 -SHRA SCT025 BKN040
     FM310300 VRB03KT 3SM BR SCT010
     FM310600 VRB03KT 1SM BR BKN004
     FM311300 VRB03KT 4SM BR OVC006
     FM311500 20005KT P6SM SCT015=



000
FTUS42 KILM 301400 AAA
TAFLBT
TAF AMD
KLBT 301451Z 3015/3112 10005KT P6SM SCT020
     FM301700 15008KT P6SM SCT040
     FM310600 VRB03KT 3SM BR SCT050
     FM310900 VRB03KT 1SM BR SCT003 OVC008=



000
FTUS42 KILM 301400 CCA
TAFILM
TAF COR
KILM 301426Z 3012/3112 04004KT P6SM VCSH SCT018
      TEMPO 3012/3016 BKN018
     FM301600 15008KT P6SM SCT025
     FM310900 VRB03KT 6SM BR BKN012=



000
FTUS42 KILM 301400 AAA
TAFFLO
TAF AMD
KFLO 301410Z 3014/3112 03004KT P6SM SCT010
     FM301700 15008KT P6SM SCT040
     FM310600 VRB03KT 3SM BR SCT050
     FM310900 VRB03KT 1SM BR SCT003 OVC008=



000
FTUS42 KILM 301100 CCA
TAFILM
TAF COR
KILM 301153Z 3012/3112 04004KT P6SM SCT018
      TEMPO 3012/3016 BKN018
     FM301600 15008KT P6SM SCT025
     FM310900 VRB03KT 6SM BR BKN012=



000
FTUS42 KILM 301100 CCA
TAFLBT
TAF COR
KLBT 301148Z 3012/3112 00000KT 6SM BR BKN005
     FM301500 15008KT P6SM SCT040
     FM310600 VRB03KT 3SM BR SCT050
     FM310900 VRB03KT 1SM BR SCT003 OVC008=



000
FTUS42 KILM 301100
TAFFLO
TAF
KFLO 301130Z 3012/3112 00000KT 3SM BR BKN005
     FM301500 15008KT P6SM SCT040
     FM310600 VRB03KT 3SM BR SCT050
     FM310900 VRB03KT 1SM BR SCT003 OVC008=



000
FTUS42 KILM 301100
TAFLBT
TAF
KLBT 301130Z 3012/3112 00000KT 6SM BR BKN006
     FM301500 15008KT P6SM SCT040
     FM310600 VRB03KT 3SM BR SCT050
     FM310900 VRB03KT 1SM BR SCT003 OVC008=



000
FTUS42 KILM 301100
TAFMYR
TAF
KMYR 301130Z 3012/3112 VRB05KT P6SM SCT018 SCT070
     FM301500 15012KT P6SM SCT020 SCT080
     FM310800 VRB02KT 5SM BR BKN010=



000
FTUS42 KILM 301100
TAFILM
TAF
KILM 301130Z 3012/3112 04004KT P6SM SCT018
      TEMPO 3012/3016 BKN020
     FM301600 15008KT P6SM SCT025
     FM310900 VRB03KT 6SM BR BKN012=



000
FTUS42 KILM 301100
TAFCRE
TAF
KCRE 301130Z 3012/3112 VRB05KT P6SM VCSH SCT018 BKN070
     FM301500 16010KT P6SM SCT020 SCT080
     FM310800 VRB02KT 5SM BR BKN010=



000
FTUS42 KILM 301100 CCB
TAFLBT
TAF COR
KLBT 301101Z 3010/3106 00000KT P6SM SKC
      TEMPO 3011/3013 4SM BR BKN008
     FM301300 15006KT P6SM SCT045=



000
FTUS42 KILM 301100 CCA
TAFCRE
TAF COR
KCRE 301100Z 3008/3106 15003KT P6SM FEW015
     FM301300 17009KT P6SM SCT040=



000
FTUS42 KILM 301000 AAA
TAFLBT
TAF AMD
KLBT 301027Z 3010/3106 00000KT P6SM SKC
      TEMPO 3010/3013 4SM BR SCT004
     FM301300 15006KT P6SM SCT045=



000
FTUS42 KILM 301000 CCA
TAFLBT
TAF COR
KLBT 301026Z 3006/3106 00000KT P6SM SKC
     FM301300 15006KT P6SM SCT045=



000
FTUS42 KILM 300800 AAA
TAFCRE
TAF AMD
KCRE 300817Z 3008/3106 15003KT P6SM FEW015
     FM300930 00000KT 4SM BR SCT006
      TEMPO 3011/3012 2SM BR BKN006
     FM301300 17009KT P6SM SCT040=



000
FTUS42 KILM 300800 AAA
TAFILM
TAF AMD
KILM 300816Z 3008/3106 02005KT P6SM FEW012 SCT020
      TEMPO 3009/3013 BKN020
     FM301300 07005KT P6SM SCT020
     FM301800 15008KT P6SM SCT040=



000
FTUS42 KILM 300500
TAFMYR
TAF
KMYR 300520Z 3006/3106 15005KT P6SM FEW015
     FM300900 00000KT 5SM BR SCT006
     FM301300 16010KT P6SM SCT040
      AMD LTD TO CLD VIS AND WIND TIL 301100=



000
FTUS42 KILM 300500
TAFLBT
TAF
KLBT 300520Z 3006/3106 00000KT P6SM SKC
     FM300830 00000KT 4SM BR SCT004
     FM301030 00000KT 1SM BR BKN004
     FM301300 15006KT P6SM SCT045=



000
FTUS42 KILM 300500
TAFCRE
TAF
KCRE 300520Z 3006/3106 15006KT P6SM FEW015
     FM300800 00000KT 4SM BR SCT006
      TEMPO 3011/3012 2SM BR BKN006
     FM301300 17009KT P6SM SCT040=



000
FTUS42 KILM 300500
TAFILM
TAF
KILM 300520Z 3006/3106 00000KT P6SM FEW015
     FM300800 00000KT 4SM BR SCT007
     FM301300 10005KT P6SM FEW025
     FM301800 15008KT P6SM SCT040=



000
FTUS42 KILM 300500
TAFFLO
TAF
KFLO 300520Z 3006/3106 00000KT P6SM SKC
     FM300800 00000KT 3SM BR SCT004
     FM301000 00000KT 1SM BR BKN004
      TEMPO 3010/3013 1/4SM FG VV001
     FM301300 15008KT P6SM SCT045=



000
FTUS42 KILM 292300
TAFMYR
TAF
KMYR 292320Z 3000/3024 16005KT P6SM SKC
     FM300800 VRB02KT 4SM BR SCT007
     FM301300 15010KT P6SM SCT040
      AMD LTD TO CLD VIS AND WIND 3004/3011=



000
FTUS42 KILM 292300
TAFILM
TAF
KILM 292320Z 3000/3024 16004KT P6SM SKC
     FM300800 00000KT 4SM BR SCT007
     FM301300 14008KT P6SM SCT040=



000
FTUS42 KILM 292300
TAFLBT
TAF
KLBT 292320Z 3000/3024 15003KT P6SM SKC
     FM300600 00000KT 3SM BR SCT005
     FM300900 00000KT 1SM BR BKN005
     FM301300 14006KT P6SM SCT045=



000
FTUS42 KILM 292300
TAFFLO
TAF
KFLO 292320Z 3000/3024 15004KT P6SM SKC
     FM300700 00000KT 3SM BR SCT005
      TEMPO 3009/3012 1SM BR BKN005
     FM301400 15008KT P6SM SCT045=



000
FTUS42 KILM 292300
TAFCRE
TAF
KCRE 292320Z 3000/3024 16005KT P6SM SKC
     FM300700 00000KT 3SM BR SCT007
     FM301300 16009KT P6SM SCT040=



    US Dept of Commerce
    National Oceanic and Atmospheric Administration
    National Weather Service
    1325 East West Highway
    Silver Spring, MD 20910
    Page Author: NWS Internet Services Team
Disclaimer
Information Quality
Credits
Glossary
Privacy Policy
Freedom of Information Act (FOIA)
About Us
Career Opportunities